CST,Max TemperatureF,Mean TemperatureF,Min TemperatureF,Max Dew PointF,MeanDew PointF,Min DewpointF,Max Humidity, Mean Humidity, Min Humidity, Max Sea Level PressureIn, Mean Sea Level PressureIn, Min Sea Level PressureIn, Max VisibilityMiles, Mean VisibilityMiles, Min VisibilityMiles, Max Wind SpeedMPH, Mean Wind SpeedMPH, Max Gust SpeedMPH,PrecipitationIn, CloudCover, Events, WindDirDegrees
2013-2-1,16,8,0,14,1,-6,91,73,64,30.36,30.27,30.18,10,9,1,21,15,25,0.03,3,Snow,263
2013-2-2,25,16,7,22,13,1,100,83,68,30.16,30.05,30.00,10,8,2,15,9,20,0.04,7,Snow,284
2013-2-3,22,16,10,20,12,4,95,81,68,30.06,30.01,29.96,10,7,1,22,8,26,0.06,7,Snow,273
2013-2-4,28,22,15,24,20,11,96,87,80,30.02,29.90,29.83,10,9,1,16,6,,0.02,7,Snow,44
2013-2-5,31,21,10,29,21,9,100,88,71,30.08,29.91,29.80,10,7,2,18,7,28,T,6,Rain-Snow,269
2013-2-6,40,30,19,30,24,15,89,78,67,30.23,30.16,30.09,10,9,5,14,7,16,0.00,3,,153
2013-2-7,36,34,32,35,32,28,100,96,87,30.10,29.96,29.84,7,3,1,16,8,16,0.74,7,Rain-Snow,112
2013-2-8,33,28,23,32,24,21,98,90,84,30.38,30.23,29.93,10,9,5,20,13,26,T,8,Snow,335
2013-2-9,34,30,25,28,25,20,94,83,77,30.39,30.27,30.07,10,10,5,18,7,22,0.00,5,,172
2013-2-10,49,41,32,46,37,27,98,90,70,30.07,29.75,29.49,10,8,2,29,15,37,0.35,7,Rain,175
2013-2-11,45,37,29,34,25,21,80,73,65,30.04,29.79,29.54,10,10,10,34,25,44,0.00,8,,268
2013-2-12,29,25,21,23,22,19,96,81,74,30.10,30.03,29.93,10,10,7,21,12,23,0.00,6,,267
2013-2-13,44,33,22,32,28,20,99,85,63,29.91,29.79,29.72,10,7,2,16,8,17,0.00,2,,222
2013-2-14,40,35,30,32,29,24,92,79,64,29.98,29.80,29.65,10,10,10,25,12,31,T,7,,259
2013-2-15,33,26,19,29,18,10,90,67,50,30.18,30.12,29.98,10,10,2,17,9,24,T,5,Snow,321
2013-2-16,22,17,12,10,6,2,72,63,53,30.19,30.15,30.11,10,10,10,17,10,24,0.00,3,,331
2013-2-17,31,20,8,18,7,-1,85,60,34,30.21,30.14,29.99,10,10,10,16,5,21,0.00,0,,192
2013-2-18,53,40,27,44,32,18,98,75,61,29.98,29.68,29.41,10,9,4,31,19,44,0.26,4,Rain-Snow,195
2013-2-19,28,19,10,24,10,3,89,77,70,30.19,29.91,29.61,10,8,1,32,24,39,T,7,Snow,287
2013-2-20,24,16,7,15,8,0,83,72,63,30.35,30.30,30.20,10,10,10,17,12,21,0.00,0,,327
2013-2-21,32,24,16,24,19,12,95,78,72,30.35,30.22,29.96,10,9,1,23,9,32,0.11,8,Snow,56
2013-2-22,34,29,23,32,25,22,100,90,77,29.95,29.86,29.80,10,6,0,24,13,29,0.26,8,Rain-Snow-Thunderstorm,192
2013-2-23,27,22,17,23,19,15,90,81,72,29.97,29.94,29.91,10,10,7,16,12,23,T,7,,261
2013-2-24,36,24,11,22,17,10,96,77,56,30.14,30.08,29.97,10,8,3,10,5,,0.00,0,,260
2013-2-25,44,32,20,28,24,17,100,75,52,30.16,30.08,29.93,10,10,7,14,5,17,0.00,0,,100
2013-2-26,36,34,31,32,29,25,100,87,68,29.92,29.62,29.49,10,6,0,26,18,38,0.54,6,Rain-Snow,58
2013-2-27,33,33,32,32,31,30,100,96,90,29.70,29.59,29.51,10,7,1,16,10,17,0.03,8,Rain-Snow,325
2013-2-28,36,32,28,32,29,21,100,86,74,30.06,29.91,29.71,10,9,3,18,12,23,0.01,8,Rain-Snow,360